createdAt,value
2022-11-27T00:00:29.466Z,6.46
2022-11-27T00:01:29.463Z,6.46
2022-11-27T00:02:29.574Z,6.44
2022-11-27T00:03:29.497Z,6.43
2022-11-27T00:04:29.407Z,6.41
2022-11-27T00:05:29.398Z,6.44
2022-11-27T00:06:29.387Z,6.43
2022-11-27T00:07:29.395Z,6.44
2022-11-27T00:08:29.347Z,6.43
2022-11-27T00:09:29.338Z,6.44
2022-11-27T00:10:29.327Z,6.44
2022-11-27T00:11:29.338Z,6.44
2022-11-27T00:12:29.298Z,6.44
2022-11-27T00:13:29.296Z,6.46
2022-11-27T00:14:29.268Z,6.47
2022-11-27T00:15:29.332Z,6.46
2022-11-27T00:16:29.368Z,6.49
2022-11-27T00:17:29.261Z,6.49
2022-11-27T00:18:29.221Z,6.50
2022-11-27T00:19:29.218Z,6.50
2022-11-27T00:20:29.906Z,6.53
2022-11-27T00:21:29.191Z,6.53
2022-11-27T00:22:29.197Z,6.53
2022-11-27T00:23:29.167Z,6.53
2022-11-27T00:24:29.135Z,6.53
2022-11-27T00:25:29.134Z,6.50
2022-11-27T00:26:33.070Z,6.50
2022-11-27T00:27:30.125Z,6.49
2022-11-27T00:28:29.099Z,6.47
2022-11-27T00:29:29.076Z,6.47
2022-11-27T00:30:29.056Z,6.46
2022-11-27T00:31:29.275Z,6.46
2022-11-27T00:32:29.074Z,6.44
2022-11-27T00:33:29.047Z,6.44
2022-11-27T00:34:29.035Z,6.46
2022-11-27T00:35:29.007Z,6.46
2022-11-27T00:36:28.985Z,6.44
2022-11-27T00:37:28.987Z,6.44
2022-11-27T00:38:28.968Z,6.43
2022-11-27T00:39:28.956Z,6.46
2022-11-27T00:40:28.927Z,6.44
2022-11-27T00:41:28.916Z,6.41
2022-11-27T00:42:28.934Z,6.41
2022-11-27T00:43:28.905Z,6.39
2022-11-27T00:44:28.886Z,6.38
2022-11-27T00:45:28.877Z,6.36
2022-11-27T00:46:29.474Z,6.35
2022-11-27T00:47:28.857Z,6.34
2022-11-27T00:48:28.829Z,6.31
2022-11-27T00:49:28.831Z,6.31
2022-11-27T00:50:28.805Z,6.31
2022-11-27T00:51:28.797Z,6.31
2022-11-27T00:52:28.804Z,6.32
2022-11-27T00:53:28.775Z,6.31
2022-11-27T00:54:28.746Z,6.29
2022-11-27T00:55:28.773Z,6.29
2022-11-27T00:56:28.726Z,6.29
2022-11-27T00:57:28.737Z,6.29
2022-11-27T00:58:28.699Z,6.28
2022-11-27T00:59:28.685Z,6.28
2022-11-27T01:00:28.666Z,6.28
2022-11-27T01:01:28.705Z,6.28
2022-11-27T01:02:28.727Z,6.28
2022-11-27T01:03:28.666Z,6.28
2022-11-27T01:04:28.626Z,6.29
2022-11-27T01:05:28.617Z,6.32
2022-11-27T01:06:28.599Z,6.29
2022-11-27T01:07:28.689Z,6.29
2022-11-27T01:08:28.584Z,6.29
2022-11-27T01:09:28.565Z,6.29
2022-11-27T01:10:28.546Z,6.29
2022-11-27T01:11:28.528Z,6.31
2022-11-27T01:12:28.545Z,6.28
2022-11-27T01:13:28.516Z,6.28
2022-11-27T01:14:28.494Z,6.28
2022-11-27T01:15:28.476Z,6.26
2022-11-27T01:16:28.521Z,6.26
2022-11-27T01:17:28.474Z,6.28
2022-11-27T01:18:28.445Z,6.26
2022-11-27T01:19:28.464Z,6.25
2022-11-27T01:20:28.415Z,6.26
2022-11-27T01:21:28.414Z,6.26
2022-11-27T01:22:28.417Z,6.26
2022-11-27T01:23:28.376Z,6.29
2022-11-27T01:24:28.377Z,6.26
2022-11-27T01:25:28.346Z,6.26
2022-11-27T01:26:28.343Z,6.26
2022-11-27T01:27:28.356Z,6.28
2022-11-27T01:28:28.326Z,6.28
2022-11-27T01:29:28.337Z,6.28
2022-11-27T01:30:28.294Z,6.28
2022-11-27T01:31:28.308Z,6.28
2022-11-27T01:32:28.284Z,6.29
2022-11-27T01:33:28.267Z,6.28
2022-11-27T01:34:28.244Z,6.31
2022-11-27T01:35:28.225Z,6.29
2022-11-27T01:36:28.213Z,6.29
2022-11-27T01:37:28.215Z,6.28
2022-11-27T01:38:28.196Z,6.26
2022-11-27T01:39:28.167Z,6.28
2022-11-27T01:40:28.166Z,6.25
2022-11-27T01:41:28.146Z,6.22
2022-11-27T01:42:28.165Z,6.20
2022-11-27T01:43:28.115Z,6.17
2022-11-27T01:44:28.115Z,6.16
2022-11-27T01:45:28.095Z,6.12
2022-11-27T01:46:28.194Z,6.12
2022-11-27T01:47:28.085Z,6.12
2022-11-27T01:48:28.065Z,6.10
2022-11-27T01:49:28.058Z,6.09
2022-11-27T01:50:28.046Z,6.09
2022-11-27T01:51:28.017Z,6.12
2022-11-27T01:52:28.034Z,6.10
2022-11-27T01:53:27.985Z,6.12
2022-11-27T01:54:27.984Z,6.15
2022-11-27T01:55:27.978Z,6.13
2022-11-27T01:56:27.964Z,6.13
2022-11-27T01:57:27.936Z,6.15
2022-11-27T01:58:27.946Z,6.12
2022-11-27T01:59:27.919Z,6.13
2022-11-27T02:00:27.915Z,6.13
2022-11-27T02:01:27.926Z,6.10
2022-11-27T02:02:27.917Z,6.09
2022-11-27T02:03:27.972Z,6.09
2022-11-27T02:04:27.854Z,6.10
2022-11-27T02:05:27.842Z,6.10
2022-11-27T02:06:27.837Z,6.09
2022-11-27T02:07:27.864Z,6.07
2022-11-27T02:08:27.825Z,6.09
2022-11-27T02:09:27.792Z,6.07
2022-11-27T02:10:27.786Z,6.06
2022-11-27T02:11:27.773Z,6.05
2022-11-27T02:12:27.755Z,6.06
2022-11-27T02:13:27.746Z,6.06
2022-11-27T02:14:27.748Z,6.06
2022-11-27T02:15:27.705Z,6.06
2022-11-27T02:16:27.761Z,6.07
2022-11-27T02:17:27.685Z,6.09
2022-11-27T02:18:27.693Z,6.06
2022-11-27T02:19:27.655Z,6.06
2022-11-27T02:20:27.668Z,6.09
2022-11-27T02:21:27.630Z,6.09
2022-11-27T02:22:27.625Z,6.09
2022-11-27T02:23:27.633Z,6.09
2022-11-27T02:24:27.604Z,6.10
2022-11-27T02:25:28.599Z,6.10
2022-11-27T02:26:27.577Z,6.09
2022-11-27T02:27:27.563Z,6.07
2022-11-27T02:28:27.565Z,6.07
2022-11-27T02:29:27.525Z,6.09
2022-11-27T02:30:27.526Z,6.09
2022-11-27T02:31:27.556Z,6.09
2022-11-27T02:32:27.484Z,6.09
2022-11-27T02:33:27.504Z,6.09
2022-11-27T02:34:27.463Z,6.10
2022-11-27T02:35:27.454Z,6.07
2022-11-27T02:36:27.445Z,6.06
2022-11-27T02:37:27.435Z,6.05
2022-11-27T02:38:27.407Z,6.05
2022-11-27T02:39:27.424Z,6.05
2022-11-27T02:40:27.405Z,6.06
2022-11-27T02:41:27.396Z,6.07
2022-11-27T02:42:27.367Z,6.09
2022-11-27T02:43:27.364Z,6.09
2022-11-27T02:44:27.344Z,6.07
2022-11-27T02:45:27.318Z,6.07
2022-11-27T02:46:27.366Z,6.06
2022-11-27T02:47:27.306Z,6.05
2022-11-27T02:48:27.383Z,6.01
2022-11-27T02:49:27.297Z,5.99
2022-11-27T02:50:27.255Z,5.99
2022-11-27T02:51:27.255Z,5.98
2022-11-27T02:52:27.255Z,5.97
2022-11-27T02:53:27.222Z,5.98
2022-11-27T02:54:27.226Z,5.98
2022-11-27T02:55:27.205Z,5.98
2022-11-27T02:56:27.184Z,5.98
2022-11-27T02:57:27.175Z,5.97
2022-11-27T02:58:27.165Z,5.97
2022-11-27T02:59:27.164Z,5.98
2022-11-27T03:00:27.125Z,6.01
2022-11-27T03:01:27.150Z,5.99
2022-11-27T03:02:27.173Z,6.01
2022-11-27T03:03:27.105Z,6.02
2022-11-27T03:04:27.102Z,6.01
2022-11-27T03:05:27.076Z,6.01
2022-11-27T03:06:27.054Z,5.98
2022-11-27T03:07:27.125Z,5.98
2022-11-27T03:08:27.033Z,5.99
2022-11-27T03:09:27.045Z,5.99
2022-11-27T03:10:27.002Z,6.02
2022-11-27T03:11:26.994Z,6.02
2022-11-27T03:12:26.985Z,5.99
2022-11-27T03:13:26.974Z,6.01
2022-11-27T03:14:26.964Z,5.99
2022-11-27T03:15:26.943Z,6.01
2022-11-27T03:16:26.964Z,5.99
2022-11-27T03:17:26.926Z,5.99
2022-11-27T03:18:26.895Z,5.99
2022-11-27T03:19:26.915Z,6.01
2022-11-27T03:20:26.893Z,5.98
2022-11-27T03:21:26.863Z,6.01
2022-11-27T03:22:26.856Z,6.01
2022-11-27T03:23:26.845Z,6.01
2022-11-27T03:24:26.935Z,6.01
2022-11-27T03:25:26.822Z,6.01
2022-11-27T03:26:26.801Z,6.05
2022-11-27T03:27:26.786Z,5.99
2022-11-27T03:28:26.775Z,5.99
2022-11-27T03:29:26.782Z,5.99
2022-11-27T03:30:26.741Z,5.98
2022-11-27T03:31:26.771Z,5.97
2022-11-27T03:32:26.724Z,5.97
2022-11-27T03:33:26.712Z,5.95
2022-11-27T03:34:26.685Z,5.97
2022-11-27T03:35:26.704Z,5.97
2022-11-27T03:36:26.672Z,5.98
2022-11-27T03:37:26.663Z,5.97
2022-11-27T03:38:26.665Z,5.98
2022-11-27T03:39:26.634Z,5.98
2022-11-27T03:40:26.625Z,5.99
2022-11-27T03:41:26.605Z,5.99
2022-11-27T03:42:26.585Z,6.02
2022-11-27T03:43:26.586Z,6.06
2022-11-27T03:44:26.554Z,6.06
2022-11-27T03:45:26.576Z,6.06
2022-11-27T03:46:26.575Z,6.06
2022-11-27T03:47:26.607Z,6.06
2022-11-27T03:48:26.512Z,6.06
2022-11-27T03:49:26.503Z,6.07
2022-11-27T03:50:26.495Z,6.07
2022-11-27T03:51:26.475Z,6.07
2022-11-27T03:52:26.465Z,6.07
2022-11-27T03:53:26.454Z,6.05
2022-11-27T03:54:26.424Z,6.05
2022-11-27T03:55:26.437Z,6.02
2022-11-27T03:56:26.404Z,6.01
2022-11-27T03:57:26.405Z,5.98
2022-11-27T03:58:26.377Z,5.98
2022-11-27T03:59:26.380Z,5.98
2022-11-27T04:00:26.365Z,5.97
2022-11-27T04:01:26.437Z,5.97
2022-11-27T04:02:26.335Z,5.99
2022-11-27T04:03:26.368Z,5.99
2022-11-27T04:04:26.303Z,5.99
2022-11-27T04:05:26.314Z,6.02
2022-11-27T04:06:26.281Z,6.01
2022-11-27T04:07:26.329Z,6.02
2022-11-27T04:08:26.254Z,6.02
2022-11-27T04:09:26.247Z,6.05
2022-11-27T04:10:26.244Z,6.06
2022-11-27T04:11:26.225Z,6.06
2022-11-27T04:12:26.201Z,6.07
2022-11-27T04:13:26.194Z,6.06
2022-11-27T04:14:26.184Z,6.05
2022-11-27T04:15:26.184Z,6.05
2022-11-27T04:16:26.233Z,6.05
2022-11-27T04:17:26.144Z,6.06
2022-11-27T04:18:26.124Z,6.05
2022-11-27T04:19:26.114Z,6.02
2022-11-27T04:20:26.121Z,6.02
2022-11-27T04:21:26.093Z,6.05
2022-11-27T04:22:26.073Z,6.05
2022-11-27T04:23:26.065Z,6.05
2022-11-27T04:24:26.053Z,6.07
2022-11-27T04:25:26.065Z,6.06
2022-11-27T04:26:26.023Z,6.07
2022-11-27T04:27:26.013Z,6.06
2022-11-27T04:28:26.003Z,6.07
2022-11-27T04:29:26.014Z,6.06
2022-11-27T04:30:25.976Z,6.05
2022-11-27T04:31:26.034Z,6.09
2022-11-27T04:32:25.996Z,6.09
2022-11-27T04:33:25.934Z,6.09
2022-11-27T04:34:25.923Z,6.10
2022-11-27T04:35:25.913Z,6.12
2022-11-27T04:36:25.911Z,6.12
2022-11-27T04:37:25.886Z,6.10
2022-11-27T04:38:25.873Z,6.13
2022-11-27T04:39:25.855Z,6.12
2022-11-27T04:40:25.843Z,6.15
2022-11-27T04:41:25.854Z,6.16
2022-11-27T04:42:25.812Z,6.16
2022-11-27T04:43:25.807Z,6.15
2022-11-27T04:44:25.797Z,6.16
2022-11-27T04:45:25.783Z,6.17
2022-11-27T04:46:25.844Z,6.17
2022-11-27T04:47:25.743Z,6.17
2022-11-27T04:48:25.744Z,6.19
2022-11-27T04:49:25.726Z,6.17
2022-11-27T04:50:25.706Z,6.20
2022-11-27T04:51:25.722Z,6.20
2022-11-27T04:52:25.683Z,6.20
2022-11-27T04:53:25.673Z,6.22
2022-11-27T04:54:25.665Z,6.22
2022-11-27T04:55:25.664Z,6.25
2022-11-27T04:56:25.643Z,6.22
2022-11-27T04:57:25.624Z,6.25
2022-11-27T04:58:25.611Z,6.19
2022-11-27T04:59:25.603Z,6.22
2022-11-27T05:00:25.682Z,6.22
2022-11-27T05:01:25.704Z,6.20
2022-11-27T05:02:25.660Z,6.22
2022-11-27T05:03:25.557Z,6.22
2022-11-27T05:04:25.532Z,6.25
2022-11-27T05:05:25.524Z,6.25
2022-11-27T05:06:25.520Z,6.22
2022-11-27T05:07:25.639Z,6.22
2022-11-27T05:08:25.483Z,6.25
2022-11-27T05:09:25.473Z,6.22
2022-11-27T05:10:25.453Z,6.25
2022-11-27T05:11:25.463Z,6.26
2022-11-27T05:12:25.432Z,6.26
2022-11-27T05:13:25.419Z,6.26
2022-11-27T05:14:25.422Z,6.26
2022-11-27T05:15:25.396Z,6.26
2022-11-27T05:16:25.507Z,6.25
2022-11-27T05:17:25.362Z,6.25
2022-11-27T05:18:25.351Z,6.25
2022-11-27T05:19:25.341Z,6.25
2022-11-27T05:20:25.325Z,6.28
2022-11-27T05:21:25.334Z,6.28
2022-11-27T05:22:25.301Z,6.28
2022-11-27T05:23:25.303Z,6.31
2022-11-27T05:24:25.272Z,6.31
2022-11-27T05:25:25.264Z,6.28
2022-11-27T05:26:25.275Z,6.28
2022-11-27T05:27:25.243Z,6.26
2022-11-27T05:28:26.977Z,6.26
2022-11-27T05:29:25.212Z,6.29
2022-11-27T05:30:25.192Z,6.26
2022-11-27T05:31:25.257Z,6.26
2022-11-27T05:32:25.173Z,6.25
2022-11-27T05:33:25.164Z,6.25
2022-11-27T05:34:25.142Z,6.22
2022-11-27T05:35:25.134Z,6.22
2022-11-27T05:36:25.140Z,6.22
2022-11-27T05:37:25.112Z,6.20
2022-11-27T05:38:25.105Z,6.20
2022-11-27T05:39:25.081Z,6.20
2022-11-27T05:40:25.073Z,6.20
2022-11-27T05:41:25.071Z,6.19
2022-11-27T05:42:25.046Z,6.16
2022-11-27T05:43:25.033Z,6.17
2022-11-27T05:44:32.134Z,6.13
2022-11-27T05:45:25.008Z,6.13
2022-11-27T05:46:25.066Z,6.12
2022-11-27T05:47:24.975Z,6.12
2022-11-27T05:48:24.966Z,6.07
2022-11-27T05:49:24.954Z,6.07
2022-11-27T05:50:24.945Z,6.07
2022-11-27T05:51:24.944Z,6.05
2022-11-27T05:52:24.915Z,6.02
2022-11-27T05:53:24.895Z,6.01
2022-11-27T05:54:24.895Z,5.98
2022-11-27T05:55:24.884Z,5.99
2022-11-27T05:56:24.864Z,5.98
2022-11-27T05:57:25.064Z,5.97
2022-11-27T05:58:24.855Z,5.95
2022-11-27T05:59:24.825Z,5.95
2022-11-27T06:00:24.794Z,5.91
2022-11-27T06:01:24.795Z,5.90
2022-11-27T06:02:29.211Z,5.90
2022-11-27T06:03:24.816Z,5.88
2022-11-27T06:04:24.765Z,5.84
2022-11-27T06:05:24.743Z,5.84
2022-11-27T06:06:24.771Z,5.87
2022-11-27T06:07:24.768Z,5.83
2022-11-27T06:08:24.724Z,5.83
2022-11-27T06:09:24.692Z,5.83
2022-11-27T06:10:24.689Z,5.83
2022-11-27T06:11:24.677Z,5.81
2022-11-27T06:12:24.665Z,5.81
2022-11-27T06:13:24.662Z,5.80
2022-11-27T06:14:24.634Z,5.77
2022-11-27T06:15:24.623Z,5.76
2022-11-27T06:16:24.703Z,5.76
2022-11-27T06:17:24.595Z,5.76
2022-11-27T06:18:24.606Z,5.76
2022-11-27T06:19:24.557Z,5.76
2022-11-27T06:20:24.564Z,5.74
2022-11-27T06:21:24.544Z,5.74
2022-11-27T06:22:24.535Z,5.74
2022-11-27T06:23:24.535Z,5.73
2022-11-27T06:24:24.504Z,5.70
2022-11-27T06:25:24.493Z,5.72
2022-11-27T06:26:24.474Z,5.72
2022-11-27T06:27:24.463Z,5.70
2022-11-27T06:28:24.474Z,5.70
2022-11-27T06:29:24.444Z,5.69
2022-11-27T06:30:24.452Z,5.69
2022-11-27T06:31:24.494Z,5.67
2022-11-27T06:32:24.405Z,5.65
2022-11-27T06:33:24.405Z,5.61
2022-11-27T06:34:24.375Z,5.62
2022-11-27T06:35:24.386Z,5.61
2022-11-27T06:36:24.356Z,5.64
2022-11-27T06:37:24.335Z,5.64
2022-11-27T06:38:24.344Z,5.64
2022-11-27T06:39:24.316Z,5.64
2022-11-27T06:40:24.293Z,5.64
2022-11-27T06:41:24.285Z,5.62
2022-11-27T06:42:24.283Z,5.64
2022-11-27T06:43:24.275Z,5.62
2022-11-27T06:44:24.254Z,5.61
2022-11-27T06:45:24.273Z,5.61
2022-11-27T06:46:24.223Z,5.59
2022-11-27T06:47:24.206Z,5.59
2022-11-27T06:48:24.235Z,5.58
2022-11-27T06:49:24.184Z,5.58
2022-11-27T06:50:24.175Z,5.56
2022-11-27T06:51:24.165Z,5.55
2022-11-27T06:52:24.144Z,5.56
2022-11-27T06:53:24.147Z,5.56
2022-11-27T06:54:24.113Z,5.58
2022-11-27T06:55:24.118Z,5.59
2022-11-27T06:56:24.103Z,5.61
2022-11-27T06:57:24.064Z,5.59
2022-11-27T06:58:29.388Z,5.59
2022-11-27T06:59:25.074Z,5.59
2022-11-27T07:00:24.043Z,5.58
2022-11-27T07:01:24.099Z,5.61
2022-11-27T07:02:24.133Z,5.58
2022-11-27T07:03:23.994Z,5.59
2022-11-27T07:04:24.005Z,5.56
2022-11-27T07:05:23.974Z,5.56
2022-11-27T07:06:23.970Z,5.56
2022-11-27T07:07:23.988Z,5.55
2022-11-27T07:08:23.934Z,5.56
2022-11-27T07:09:23.982Z,5.56
2022-11-27T07:10:23.903Z,5.59
2022-11-27T07:11:23.892Z,5.59
2022-11-27T07:12:23.902Z,5.58
2022-11-27T07:13:23.867Z,5.58
2022-11-27T07:14:23.891Z,5.59
2022-11-27T07:15:23.845Z,5.56
2022-11-27T07:16:23.897Z,5.55
2022-11-27T07:17:23.829Z,5.54
2022-11-27T07:18:23.806Z,5.52
2022-11-27T07:19:24.762Z,5.51
2022-11-27T07:20:23.782Z,5.49
2022-11-27T07:21:23.763Z,5.49
2022-11-27T07:22:23.752Z,5.47
2022-11-27T07:23:23.762Z,5.47
2022-11-27T07:24:23.742Z,5.46
2022-11-27T07:25:23.711Z,5.41
2022-11-27T07:26:23.703Z,5.43
2022-11-27T07:27:23.683Z,5.40
2022-11-27T07:28:23.671Z,5.43
2022-11-27T07:29:23.674Z,5.43
2022-11-27T07:30:23.632Z,5.43
2022-11-27T07:31:23.678Z,5.44
2022-11-27T07:32:23.631Z,5.43
2022-11-27T07:33:23.624Z,5.43
2022-11-27T07:34:23.612Z,5.43
2022-11-27T07:35:23.582Z,5.43
2022-11-27T07:36:23.571Z,5.44
2022-11-27T07:37:23.573Z,5.43
2022-11-27T07:38:23.551Z,5.43
2022-11-27T07:39:39.740Z,5.43
2022-11-27T07:40:24.511Z,5.43
2022-11-27T07:41:23.502Z,5.44
2022-11-27T07:42:37.413Z,5.46
2022-11-27T07:43:24.473Z,5.47
2022-11-27T07:44:23.485Z,5.49
2022-11-27T07:45:23.501Z,5.52
2022-11-27T07:46:23.499Z,5.55
2022-11-27T07:47:23.412Z,5.59
2022-11-27T07:48:23.412Z,5.64
2022-11-27T07:49:23.420Z,5.65
2022-11-27T07:50:23.392Z,5.69
2022-11-27T07:51:23.375Z,5.69
2022-11-27T07:52:23.392Z,5.72
2022-11-27T07:53:23.353Z,5.74
2022-11-27T07:54:23.353Z,5.79
2022-11-27T07:55:23.321Z,5.80
2022-11-27T07:56:23.312Z,5.83
2022-11-27T07:57:23.303Z,5.84
2022-11-27T07:58:23.281Z,5.84
2022-11-27T07:59:23.280Z,5.88
2022-11-27T08:00:23.261Z,5.88
2022-11-27T08:01:23.351Z,5.88
2022-11-27T08:02:23.287Z,5.91
2022-11-27T08:03:23.222Z,5.90
2022-11-27T08:04:23.284Z,5.91
2022-11-27T08:05:23.240Z,5.88
2022-11-27T08:06:23.190Z,5.88
2022-11-27T08:07:23.205Z,5.90
2022-11-27T08:08:23.161Z,5.91
2022-11-27T08:09:23.157Z,5.91
2022-11-27T08:10:23.133Z,5.88
2022-11-27T08:11:23.131Z,5.91
2022-11-27T08:12:23.107Z,5.92
2022-11-27T08:13:23.091Z,5.90
2022-11-27T08:14:23.095Z,5.94
2022-11-27T08:15:23.061Z,5.97
2022-11-27T08:16:23.146Z,6.01
2022-11-27T08:17:23.043Z,6.07
2022-11-27T08:18:23.029Z,6.12
2022-11-27T08:19:23.032Z,6.16
2022-11-27T08:20:23.002Z,6.16
2022-11-27T08:21:22.991Z,6.17
2022-11-27T08:22:22.982Z,6.22
2022-11-27T08:23:22.962Z,6.25
2022-11-27T08:24:22.979Z,6.28
2022-11-27T08:25:22.933Z,6.28
2022-11-27T08:26:22.923Z,6.34
2022-11-27T08:27:22.902Z,6.86
2022-11-27T08:28:22.901Z,7.56
2022-11-27T08:29:22.900Z,8.05
2022-11-27T08:30:22.873Z,8.24
2022-11-27T08:31:22.882Z,8.59
2022-11-27T08:32:22.841Z,8.92
2022-11-27T08:33:22.830Z,9.13
2022-11-27T08:34:22.841Z,9.45
2022-11-27T08:35:22.810Z,9.69
2022-11-27T08:36:22.792Z,9.90
2022-11-27T08:37:22.780Z,9.99
2022-11-27T08:38:22.772Z,10.07
2022-11-27T08:39:22.771Z,10.21
2022-11-27T08:40:22.742Z,10.20
2022-11-27T08:41:22.734Z,10.10
2022-11-27T08:42:22.712Z,10.09
2022-11-27T08:43:22.701Z,10.03
2022-11-27T08:44:22.702Z,9.97
2022-11-27T08:45:22.702Z,9.70
2022-11-27T08:46:22.666Z,9.47
2022-11-27T08:47:22.651Z,9.19
2022-11-27T08:48:22.651Z,8.86
2022-11-27T08:49:22.632Z,8.63
2022-11-27T08:50:22.622Z,8.39
2022-11-27T08:51:22.590Z,8.17
2022-11-27T08:52:22.583Z,7.91
2022-11-27T08:53:22.561Z,7.74
2022-11-27T08:54:22.571Z,7.58
2022-11-27T08:55:22.537Z,7.48
2022-11-27T08:56:22.518Z,7.46
2022-11-27T08:57:22.490Z,7.39
2022-11-27T08:58:22.480Z,7.31
2022-11-27T08:59:22.490Z,7.23
2022-11-27T09:00:27.599Z,7.22
2022-11-27T09:01:23.516Z,7.18
2022-11-27T09:02:22.442Z,7.18
2022-11-27T09:03:22.402Z,7.15
2022-11-27T09:04:22.505Z,7.14
2022-11-27T09:05:22.401Z,7.10
2022-11-27T09:06:22.394Z,7.10
2022-11-27T09:07:22.417Z,7.07
2022-11-27T09:08:22.370Z,7.07
2022-11-27T09:09:22.362Z,7.05
2022-11-27T09:10:22.343Z,7.04
2022-11-27T09:11:22.321Z,7.04
2022-11-27T09:12:22.319Z,7.05
2022-11-27T09:13:22.302Z,7.05
2022-11-27T09:14:22.320Z,7.05
2022-11-27T09:15:22.335Z,7.07
2022-11-27T09:16:22.349Z,7.08
2022-11-27T09:17:22.231Z,7.10
2022-11-27T09:18:22.252Z,7.08
2022-11-27T09:19:22.231Z,7.10
2022-11-27T09:20:22.217Z,7.13
2022-11-27T09:21:22.197Z,7.13
2022-11-27T09:22:22.182Z,7.15
2022-11-27T09:23:22.164Z,7.19
2022-11-27T09:24:22.175Z,7.19
2022-11-27T09:25:22.148Z,7.23
2022-11-27T09:26:22.140Z,7.23
2022-11-27T09:27:22.113Z,7.26
2022-11-27T09:28:23.017Z,7.25
2022-11-27T09:29:22.091Z,7.25
2022-11-27T09:30:22.113Z,7.28
2022-11-27T09:31:22.062Z,7.28
2022-11-27T09:32:22.104Z,7.29
2022-11-27T09:33:22.033Z,7.32
2022-11-27T09:34:22.026Z,7.32
2022-11-27T09:35:22.116Z,7.29
2022-11-27T09:36:21.992Z,7.29
2022-11-27T09:37:21.984Z,7.28
2022-11-27T09:38:21.990Z,7.29
2022-11-27T09:39:21.952Z,7.31
2022-11-27T09:40:22.006Z,7.33
2022-11-27T09:41:22.092Z,7.39
2022-11-27T09:42:21.901Z,7.41
2022-11-27T09:43:21.903Z,7.40
2022-11-27T09:44:21.920Z,7.43
2022-11-27T09:45:21.934Z,7.46
2022-11-27T09:46:22.079Z,7.44
2022-11-27T09:47:21.860Z,7.47
2022-11-27T09:48:21.852Z,7.50
2022-11-27T09:49:21.822Z,7.55
2022-11-27T09:50:21.890Z,7.56
2022-11-27T09:51:21.794Z,7.56
2022-11-27T09:52:21.783Z,7.56
2022-11-27T09:53:21.780Z,7.56
2022-11-27T09:54:21.755Z,7.58
2022-11-27T09:55:21.821Z,7.55
2022-11-27T09:56:21.717Z,7.55
2022-11-27T09:57:21.731Z,7.56
2022-11-27T09:58:22.392Z,7.55
2022-11-27T09:59:21.691Z,7.56
2022-11-27T10:00:21.945Z,7.56
2022-11-27T10:01:21.707Z,7.55
2022-11-27T10:02:21.845Z,7.55
2022-11-27T10:03:21.687Z,7.53
2022-11-27T10:04:21.622Z,7.55
2022-11-27T10:05:22.045Z,7.55
2022-11-27T10:06:21.601Z,7.55
2022-11-27T10:07:21.635Z,7.53
2022-11-27T10:08:21.574Z,7.51
2022-11-27T10:09:21.552Z,7.51
2022-11-27T10:10:21.577Z,7.51
2022-11-27T10:11:21.584Z,7.51
2022-11-27T10:12:21.531Z,7.50
2022-11-27T10:13:21.510Z,7.50
2022-11-27T10:14:21.491Z,7.50
2022-11-27T10:15:21.519Z,7.50
2022-11-27T10:16:21.561Z,7.51
2022-11-27T10:17:21.461Z,7.51
2022-11-27T10:18:21.485Z,7.58
2022-11-27T10:19:21.433Z,7.58
2022-11-27T10:20:21.433Z,7.61
2022-11-27T10:21:21.410Z,7.59
2022-11-27T10:22:21.562Z,7.61
2022-11-27T10:23:21.404Z,7.61
2022-11-27T10:24:21.372Z,7.62
2022-11-27T10:25:21.361Z,7.62
2022-11-27T10:26:21.343Z,7.62
2022-11-27T10:27:21.339Z,7.61
2022-11-27T10:28:21.302Z,7.62
2022-11-27T10:29:21.291Z,7.64
2022-11-27T10:30:21.297Z,7.64
2022-11-27T10:31:21.400Z,7.67
2022-11-27T10:32:53.458Z,7.70
2022-11-27T10:33:23.368Z,7.72
2022-11-27T10:34:21.548Z,7.72
2022-11-27T10:35:21.231Z,7.72
2022-11-27T10:36:21.212Z,7.72
2022-11-27T10:37:21.191Z,7.74
2022-11-27T10:38:21.172Z,7.77
2022-11-27T10:39:21.162Z,7.77
2022-11-27T10:40:21.144Z,7.81
2022-11-27T10:42:22.123Z,7.84
2022-11-27T10:43:21.118Z,7.88
2022-11-27T10:44:21.104Z,7.91
2022-11-27T10:45:21.092Z,7.95
2022-11-27T10:46:21.186Z,7.98
2022-11-27T10:47:21.042Z,8.02
2022-11-27T10:48:21.134Z,8.06
2022-11-27T10:49:21.052Z,8.11
2022-11-27T10:50:21.024Z,8.14
2022-11-27T10:51:21.032Z,8.20
2022-11-27T10:52:21.033Z,8.23
2022-11-27T10:53:21.062Z,8.24
2022-11-27T10:54:21.020Z,8.27
2022-11-27T10:55:20.981Z,8.31
2022-11-27T10:56:20.951Z,8.35
2022-11-27T10:57:20.921Z,8.38
2022-11-27T10:58:20.902Z,8.41
2022-11-27T10:59:20.891Z,8.44
2022-11-27T11:00:20.893Z,8.45
2022-11-27T11:01:20.915Z,8.50
2022-11-27T11:02:20.887Z,8.54
2022-11-27T11:03:20.835Z,8.57
2022-11-27T11:05:37.675Z,8.61
2022-11-27T11:06:23.127Z,8.60
2022-11-27T11:07:20.857Z,8.60
2022-11-27T11:08:20.943Z,8.56
2022-11-27T11:09:20.792Z,8.54
2022-11-27T11:10:20.763Z,8.50
2022-11-27T11:11:20.872Z,8.46
2022-11-27T11:12:20.711Z,8.44
2022-11-27T11:13:20.740Z,8.44
2022-11-27T11:14:20.694Z,8.39
2022-11-27T11:15:20.685Z,8.39
2022-11-27T11:16:24.371Z,8.39
2022-11-27T11:17:20.717Z,8.39
2022-11-27T11:18:20.663Z,8.38
2022-11-27T11:19:20.629Z,8.39
2022-11-27T11:20:20.627Z,8.38
2022-11-27T11:21:20.639Z,8.41
2022-11-27T11:22:20.587Z,8.44
2022-11-27T11:23:20.596Z,8.44
2022-11-27T11:24:20.658Z,8.45
2022-11-27T11:25:20.565Z,8.46
2022-11-27T11:26:20.554Z,8.50
2022-11-27T11:27:20.519Z,8.50
2022-11-27T11:28:20.700Z,8.50
2022-11-27T11:29:20.550Z,8.54
2022-11-27T11:30:20.519Z,8.56
2022-11-27T11:31:20.561Z,8.59
2022-11-27T11:32:20.443Z,8.59
2022-11-27T11:33:20.463Z,8.60
2022-11-27T11:34:20.430Z,8.63
2022-11-27T11:35:20.413Z,8.66
2022-11-27T11:36:20.393Z,8.64
2022-11-27T11:37:20.381Z,8.64
2022-11-27T11:38:20.372Z,8.66
2022-11-27T11:39:20.342Z,8.69
2022-11-27T11:40:20.354Z,8.71
2022-11-27T11:41:20.359Z,8.74
2022-11-27T11:42:20.313Z,8.77
2022-11-27T11:43:20.308Z,8.77
2022-11-27T11:44:20.281Z,8.77
2022-11-27T11:45:20.300Z,8.78
2022-11-27T11:46:20.488Z,8.79
2022-11-27T11:47:20.255Z,8.81
2022-11-27T11:48:20.239Z,8.79
2022-11-27T11:49:20.220Z,8.79
2022-11-27T11:50:20.203Z,8.79
2022-11-27T11:51:22.798Z,8.82
2022-11-27T11:52:21.202Z,8.84
2022-11-27T11:53:20.196Z,8.82
2022-11-27T11:54:20.143Z,8.86
2022-11-27T11:55:20.139Z,8.86
2022-11-27T11:56:20.124Z,8.86
2022-11-27T11:57:20.135Z,8.87
2022-11-27T11:58:20.114Z,8.86
2022-11-27T11:59:20.084Z,8.86
2022-11-27T12:00:22.851Z,8.84
2022-11-27T12:01:28.344Z,8.82
2022-11-27T12:02:21.188Z,8.81
2022-11-27T12:03:20.035Z,8.82
2022-11-27T12:04:20.062Z,8.86
2022-11-27T12:05:20.003Z,8.86
2022-11-27T12:06:19.979Z,8.89
2022-11-27T12:07:20.030Z,8.89
2022-11-27T12:08:19.973Z,8.89
2022-11-27T12:09:19.966Z,8.87
2022-11-27T12:10:19.933Z,8.84
2022-11-27T12:11:19.930Z,8.82
2022-11-27T12:12:19.932Z,8.79
2022-11-27T12:13:19.893Z,8.77
2022-11-27T12:14:19.881Z,8.77
2022-11-27T12:15:19.872Z,8.75
2022-11-27T12:16:19.923Z,8.72
2022-11-27T12:17:20.736Z,8.71
2022-11-27T12:18:19.831Z,8.72
2022-11-27T12:19:19.814Z,8.69
2022-11-27T12:20:19.803Z,8.66
2022-11-27T12:21:19.775Z,8.66
2022-11-27T12:22:19.810Z,8.66
2022-11-27T12:23:19.763Z,8.64
2022-11-27T12:24:19.741Z,8.63
2022-11-27T12:25:19.730Z,8.63
2022-11-27T12:26:19.712Z,8.64
2022-11-27T12:27:19.710Z,8.61
2022-11-27T12:28:19.683Z,8.61
2022-11-27T12:29:19.663Z,8.61
2022-11-27T12:30:19.662Z,8.60
2022-11-27T12:31:19.694Z,8.57
2022-11-27T12:32:19.852Z,8.57
2022-11-27T12:33:19.623Z,8.54
2022-11-27T12:34:19.623Z,8.53
2022-11-27T12:35:19.592Z,8.50
2022-11-27T12:36:19.640Z,8.52
2022-11-27T12:37:19.622Z,8.52
2022-11-27T12:38:19.553Z,8.50
2022-11-27T12:39:19.563Z,8.46
2022-11-27T12:40:19.532Z,8.45
2022-11-27T12:41:19.523Z,8.46
2022-11-27T12:42:22.103Z,8.49
2022-11-27T12:43:19.483Z,8.49
2022-11-27T12:44:19.533Z,8.50
2022-11-27T12:45:19.440Z,8.50
2022-11-27T12:46:19.456Z,8.52
2022-11-27T12:47:19.558Z,8.50
2022-11-27T12:48:19.436Z,8.52
2022-11-27T12:49:19.435Z,8.53
2022-11-27T12:50:19.403Z,8.53
2022-11-27T12:51:19.384Z,8.54
2022-11-27T12:52:19.401Z,8.56
2022-11-27T12:53:24.536Z,8.53
2022-11-27T12:54:20.343Z,8.56
2022-11-27T12:55:19.334Z,8.54
2022-11-27T12:56:19.326Z,8.54
2022-11-27T12:57:19.317Z,8.54
2022-11-27T12:58:19.363Z,8.54
2022-11-27T12:59:19.274Z,8.56
2022-11-27T13:00:19.263Z,8.56
2022-11-27T13:01:23.645Z,8.57
2022-11-27T13:02:20.355Z,8.57
2022-11-27T13:03:19.222Z,8.57
2022-11-27T13:04:19.216Z,8.56
2022-11-27T13:05:19.193Z,8.54
2022-11-27T13:06:19.186Z,8.54
2022-11-27T13:07:19.188Z,8.53
2022-11-27T13:08:19.174Z,8.54
2022-11-27T13:09:19.147Z,8.54
2022-11-27T13:10:19.229Z,8.52
2022-11-27T13:11:19.121Z,8.52
2022-11-27T13:12:19.286Z,8.52
2022-11-27T13:13:19.203Z,8.50
2022-11-27T13:14:19.052Z,8.46
2022-11-27T13:15:19.131Z,8.46
2022-11-27T13:16:19.163Z,8.46
2022-11-27T13:17:19.022Z,8.46
2022-11-27T13:18:19.035Z,8.49
2022-11-27T13:19:19.002Z,8.46
2022-11-27T13:20:18.991Z,8.49